Time;durP1;ratioP1;P1;durP2;ratioP2;P2;SDS_P1;SDS_P2;PMS_P1;PMS_P2;Temp;Humidity;BMP_temperature;BMP_pressure;BME280_temperature;BME280_humidity;BME280_pressure;Samples;Min_cycle;Max_cycle;Signal;HPM_P1;HPM_P2
2023/01/24 00:02:24;;;;;;;;;;;;;;;-2.61;75.93;101994.00;5046476;28;19928;-73
2023/01/24 00:04:51;;;;;;;;;;;;;;;-2.59;76.13;101993.88;5062292;28;19929;-74
2023/01/24 00:07:17;;;;;;;;;;;;;;;-2.57;76.10;101989.25;5047885;28;20027;-74
2023/01/24 00:09:43;;;;;;;;;;;;;;;-2.55;76.10;101992.63;5068063;28;19964;-74
2023/01/24 00:12:09;;;;;;;;;;;;;;;-2.57;75.91;101978.53;5049635;28;19935;-74
2023/01/24 00:14:35;;;;;;;;;;;;;;;-2.53;75.97;101996.03;5030623;28;19928;-74
2023/01/24 00:17:01;;;;;;;;;;;;;;;-2.51;75.70;101987.84;5067558;28;20419;-73
2023/01/24 00:19:27;;;;;;;;;;;;;;;-2.57;75.92;101982.06;5046092;28;20179;-73
2023/01/24 00:21:54;;;;;;;;;;;;;;;-2.55;76.01;101981.91;5046324;28;19951;-71
2023/01/24 00:24:20;;;;;;;;;;;;;;;-2.54;75.73;101985.47;5062981;28;19935;-70
2023/01/24 00:26:46;;;;;;;;;;;;;;;-2.64;75.93;101985.41;5037512;28;19929;-72
2023/01/24 00:29:11;;;;;;;;;;;;;;;-2.68;76.16;101983.97;5059765;28;20023;-71
2023/01/24 00:31:37;;;;;;;;;;;;;;;-2.73;76.22;101979.03;5065820;28;19935;-71
2023/01/24 00:34:03;;;;;;;;;;;;;;;-2.79;76.11;101985.75;5046074;28;19928;-71
2023/01/24 00:36:29;;;;;;;;;;;;;;;-2.80;76.38;101981.38;5025648;28;20362;-71
2023/01/24 00:38:59;;;;;;;;;;;;;;;-2.73;76.44;101979.03;5045617;28;19929;-74
2023/01/24 00:41:26;;;;;;;;;;;;;;;-2.71;76.37;101977.91;5010751;28;19982;-73
2023/01/24 00:43:53;;;;;;;;;;;;;;;-2.73;76.23;101971.00;5041859;28;19971;-71
2023/01/24 00:46:18;;;;;;;;;;;;;;;-2.69;76.57;101982.28;5057786;28;19972;-71
2023/01/24 00:48:48;;;;;;;;;;;;;;;-2.64;76.39;101974.69;5026516;28;19928;-70
2023/01/24 00:51:13;;;;;;;;;;;;;;;-2.55;76.38;101984.59;5039245;28;19929;-70
2023/01/24 00:53:39;;;;;;;;;;;;;;;-2.50;76.15;101981.50;5032025;28;19929;-70
2023/01/24 00:56:07;;;;;;;;;;;;;;;-2.46;76.11;101975.75;5063224;28;19936;-70
2023/01/24 00:58:33;;;;;;;;;;;;;;;-2.44;75.96;101962.22;5050391;28;19974;-70
2023/01/24 01:01:02;;;;;;;;;;;;;;;-2.41;75.79;101961.97;5047071;28;19928;-70
2023/01/24 01:03:29;;;;;;;;;;;;;;;-2.36;75.49;101957.03;5065934;28;19990;-73
2023/01/24 01:05:59;;;;;;;;;;;;;;;-2.35;75.78;101956.03;5032207;28;19974;-73
2023/01/24 01:08:25;;;;;;;;;;;;;;;-2.35;75.40;101950.69;5032545;28;20090;-73
2023/01/24 01:10:51;;;;;;;;;;;;;;;-2.37;75.31;101958.00;5011593;28;20483;-73
2023/01/24 01:13:18;;;;;;;;;;;;;;;-2.47;75.43;101957.13;5011644;28;20423;-73
2023/01/24 01:15:44;;;;;;;;;;;;;;;-2.52;75.72;101957.53;5054870;28;19952;-73
2023/01/24 01:18:09;;;;;;;;;;;;;;;-2.53;75.82;101953.16;5039994;28;19959;-70
2023/01/24 01:20:35;;;;;;;;;;;;;;;-2.55;75.85;101957.81;5042851;28;19935;-71
2023/01/24 01:23:01;;;;;;;;;;;;;;;-2.55;75.78;101951.63;5035257;28;19981;-70
2023/01/24 01:25:27;;;;;;;;;;;;;;;-2.55;75.89;101951.63;5062804;28;20470;-70
2023/01/24 01:27:53;;;;;;;;;;;;;;;-2.54;76.15;101943.41;5044723;28;20002;-71
2023/01/24 01:30:21;;;;;;;;;;;;;;;-2.46;75.90;101950.78;5011665;28;19954;-73
2023/01/24 01:32:47;;;;;;;;;;;;;;;-2.43;75.83;101943.31;5025228;28;19929;-74
2023/01/24 01:35:13;;;;;;;;;;;;;;;-2.41;75.79;101943.19;5026952;28;19982;-73
2023/01/24 01:37:38;;;;;;;;;;;;;;;-2.39;75.63;101935.88;5026365;28;19968;-73
2023/01/24 01:40:05;;;;;;;;;;;;;;;-2.39;75.71;101943.91;5012004;28;19972;-73
2023/01/24 01:42:39;;;;;;;;;;;;;;;-2.39;75.72;101945.72;5025348;28;20019;-75
2023/01/24 01:45:25;;;;;;;;;;;;;;;-2.39;75.67;101935.00;5042483;28;20465;-73
2023/01/24 01:47:52;;;;;;;;;;;;;;;-2.40;75.50;101941.34;5004468;28;20174;-73
2023/01/24 01:50:24;;;;;;;;;;;;;;;-2.43;75.56;101932.59;5007808;28;19987;-73
2023/01/24 01:52:50;;;;;;;;;;;;;;;-2.44;75.65;101928.22;5004116;28;19968;-74
2023/01/24 01:55:17;;;;;;;;;;;;;;;-2.42;75.54;101930.75;5016699;28;19968;-74
2023/01/24 01:57:44;;;;;;;;;;;;;;;-2.43;75.46;101934.44;5025455;28;19929;-74
2023/01/24 02:00:11;;;;;;;;;;;;;;;-2.48;75.54;101937.53;5022666;28;19932;-71
2023/01/24 02:02:41;;;;;;;;;;;;;;;-2.45;75.64;101945.28;5006026;28;19939;-71
2023/01/24 02:05:10;;;;;;;;;;;;;;;-2.45;75.77;101934.59;4990024;28;19929;-71
2023/01/24 02:07:39;;;;;;;;;;;;;;;-2.43;75.81;101942.47;5001474;28;19932;-71
2023/01/24 02:10:05;;;;;;;;;;;;;;;-2.40;75.80;101938.69;5007411;28;19991;-71
2023/01/24 02:12:32;;;;;;;;;;;;;;;-2.43;75.79;101934.44;5027699;28;20444;-70
2023/01/24 02:17:45;;;;;;;;;;;;;;;-2.50;75.67;101942.16;5005968;28;19936;-70
2023/01/24 02:20:16;;;;;;;;;;;;;;;-2.54;76.00;101938.06;5025614;28;19929;-70
2023/01/24 02:22:48;;;;;;;;;;;;;;;-2.51;76.00;101940.47;5040472;28;19929;-70
2023/01/24 02:25:18;;;;;;;;;;;;;;;-2.54;75.97;101940.75;5026081;28;19929;-71
2023/01/24 02:27:45;;;;;;;;;;;;;;;-2.52;75.93;101938.78;5045097;28;19944;-72
2023/01/24 02:30:11;;;;;;;;;;;;;;;-2.53;76.12;101934.41;5046491;28;19928;-70
2023/01/24 02:32:37;;;;;;;;;;;;;;;-2.56;76.27;101934.69;5044573;28;19983;-74
2023/01/24 02:35:03;;;;;;;;;;;;;;;-2.60;76.40;101930.59;5000170;28;19929;-73
2023/01/24 02:37:31;;;;;;;;;;;;;;;-2.55;76.31;101935.53;4977082;28;19929;-73
2023/01/24 02:39:59;;;;;;;;;;;;;;;-2.46;76.33;101940.06;5014117;28;19936;-73
2023/01/24 02:42:26;;;;;;;;;;;;;;;-2.39;76.16;101932.31;5011055;28;19964;-73
2023/01/24 02:44:58;;;;;;;;;;;;;;;-2.38;75.80;101934.88;5043187;28;19987;-73
2023/01/24 02:47:32;;;;;;;;;;;;;;;-2.42;75.74;101936.97;5012401;28;19936;-73
2023/01/24 02:49:58;;;;;;;;;;;;;;;-2.42;75.96;101931.63;5046222;28;19932;-73
2023/01/24 02:55:08;;;;;;;;;;;;;;;-2.40;75.80;101915.41;5000435;28;20312;-73
2023/01/24 03:00:21;;;;;;;;;;;;;;;-2.32;75.65;101914.72;5027342;28;20404;-69
2023/01/24 03:02:47;;;;;;;;;;;;;;;-2.31;75.54;101909.22;5026232;28;20024;-69
2023/01/24 03:05:12;;;;;;;;;;;;;;;-2.33;75.30;101913.88;5011446;28;20027;-69
2023/01/24 03:07:43;;;;;;;;;;;;;;;-2.32;75.48;101904.84;5021246;28;20355;-69
2023/01/24 03:10:11;;;;;;;;;;;;;;;-2.39;75.41;101897.50;5029879;28;19952;-69
2023/01/24 03:34:49;;;;;;;;;;;;;;;-2.60;76.43;101888.56;5028332;28;19929;-70
2023/01/24 03:40:12;;;;;;;;;;;;;;;-2.60;76.54;101885.03;4979715;28;19936;-73
2023/01/24 03:42:50;;;;;;;;;;;;;;;-2.66;76.75;101877.53;4999258;28;19954;-70
2023/01/24 03:45:19;;;;;;;;;;;;;;;-2.65;76.68;101871.22;5011654;28;20504;-70
2023/01/24 03:47:55;;;;;;;;;;;;;;;-2.62;76.77;101873.63;5040464;28;19935;-70
2023/01/24 03:53:09;;;;;;;;;;;;;;;-2.67;77.12;101878.50;5065932;28;19928;-71
2023/01/24 03:55:35;;;;;;;;;;;;;;;-2.64;77.15;101865.72;5065314;28;19934;-68
2023/01/24 03:58:01;;;;;;;;;;;;;;;-2.61;77.17;101865.44;5056138;28;19933;-70
2023/01/24 04:00:27;;;;;;;;;;;;;;;-2.58;76.82;101877.72;5038949;28;19935;-70
2023/01/24 04:02:59;;;;;;;;;;;;;;;-2.53;76.86;101871.94;5027803;28;20396;-71
2023/01/24 04:05:25;;;;;;;;;;;;;;;-2.52;76.70;101874.47;5044801;28;19929;-71
2023/01/24 04:07:52;;;;;;;;;;;;;;;-2.55;76.53;101872.06;4995763;28;20434;-71
2023/01/24 04:10:18;;;;;;;;;;;;;;;-2.63;76.86;101886.16;5035420;28;19928;-72
2023/01/24 04:12:47;;;;;;;;;;;;;;;-2.67;76.82;101875.84;5001624;28;19987;-71
2023/01/24 04:15:16;;;;;;;;;;;;;;;-2.67;77.12;101876.69;5043607;28;19929;-71
2023/01/24 04:17:43;;;;;;;;;;;;;;;-2.69;77.29;101873.31;5047815;28;19929;-71
2023/01/24 04:20:12;;;;;;;;;;;;;;;-2.68;77.28;101872.31;5029565;28;19935;-71
2023/01/24 04:22:39;;;;;;;;;;;;;;;-2.71;77.39;101875.28;5033040;28;19932;-71
2023/01/24 04:25:06;;;;;;;;;;;;;;;-2.75;77.46;101864.00;5046120;28;19929;-71
2023/01/24 04:27:33;;;;;;;;;;;;;;;-2.83;77.67;101868.34;5048352;28;19936;-71
2023/01/24 04:30:11;;;;;;;;;;;;;;;-2.92;77.92;101859.28;5025793;28;20324;-71
2023/01/24 04:32:38;;;;;;;;;;;;;;;-2.98;78.24;101868.69;5034559;28;19983;-71
2023/01/24 04:35:19;;;;;;;;;;;;;;;-2.92;78.56;101864.63;5039476;28;20421;-73
2023/01/24 04:37:51;;;;;;;;;;;;;;;-2.93;78.44;101881.69;5009383;28;19929;-74
2023/01/24 04:40:29;;;;;;;;;;;;;;;-3.00;78.48;101865.31;5013720;28;19936;-73
2023/01/24 04:42:56;;;;;;;;;;;;;;;-3.03;78.68;101879.81;5045665;28;20399;-73
2023/01/24 04:45:22;;;;;;;;;;;;;;;-3.08;78.98;101879.38;5045412;28;19964;-73
2023/01/24 04:47:48;;;;;;;;;;;;;;;-3.09;78.96;101868.78;5046454;28;19974;-73
2023/01/24 04:50:14;;;;;;;;;;;;;;;-3.11;79.25;101871.59;5049939;28;19982;-74
2023/01/24 04:52:42;;;;;;;;;;;;;;;-3.18;79.49;101867.75;5043151;28;19932;-74
2023/01/24 04:55:09;;;;;;;;;;;;;;;-3.24;79.63;101862.94;5059690;28;19933;-73
2023/01/24 04:57:35;;;;;;;;;;;;;;;-3.26;79.98;101871.09;5061980;28;19928;-73
2023/01/24 05:00:03;;;;;;;;;;;;;;;-3.33;80.10;101862.75;5061679;28;19963;-73
2023/01/24 05:02:30;;;;;;;;;;;;;;;-3.35;80.43;101867.38;5016891;28;20354;-73
2023/01/24 05:04:56;;;;;;;;;;;;;;;-3.33;80.42;101860.06;5047738;28;20684;-69
2023/01/24 05:07:23;;;;;;;;;;;;;;;-3.31;80.57;101854.59;5047114;28;19928;-69
2023/01/24 05:09:58;;;;;;;;;;;;;;;-3.33;80.46;101860.06;5031440;28;19932;-71
2023/01/24 05:12:24;;;;;;;;;;;;;;;-3.36;80.34;101854.13;5010673;28;19932;-70
2023/01/24 05:14:50;;;;;;;;;;;;;;;-3.45;80.79;101858.44;5035484;28;19958;-70
2023/01/24 05:17:16;;;;;;;;;;;;;;;-3.53;80.81;101858.28;5035463;28;20295;-72
2023/01/24 05:19:42;;;;;;;;;;;;;;;-3.56;81.35;101862.03;5021626;28;19929;-72
2023/01/24 05:22:08;;;;;;;;;;;;;;;-3.52;81.47;101860.78;5039460;28;19990;-72
2023/01/24 05:24:39;;;;;;;;;;;;;;;-3.42;81.40;101855.53;5027116;28;20175;-72
2023/01/24 05:27:08;;;;;;;;;;;;;;;-3.31;81.14;101854.59;5037252;28;19955;-70
2023/01/24 05:29:37;;;;;;;;;;;;;;;-3.22;80.75;101853.78;5045195;28;19928;-72
2023/01/24 05:32:04;;;;;;;;;;;;;;;-3.18;80.62;101846.34;5022996;28;19928;-72
2023/01/24 05:34:30;;;;;;;;;;;;;;;-3.21;80.43;101855.47;5041706;28;20008;-69
2023/01/24 05:36:56;;;;;;;;;;;;;;;-3.26;80.53;101854.22;5039521;28;20428;-70
2023/01/24 05:39:22;;;;;;;;;;;;;;;-3.30;80.51;101843.75;5014743;28;20382;-70
2023/01/24 05:41:49;;;;;;;;;;;;;;;-3.31;80.61;101850.06;5012983;28;19971;-70
2023/01/24 05:44:18;;;;;;;;;;;;;;;-3.33;80.51;101851.22;4688487;28;10000291;-69
2023/01/24 05:46:47;;;;;;;;;;;;;;;-3.33;80.74;101849.38;5015996;28;20022;-69
2023/01/24 05:49:20;;;;;;;;;;;;;;;-3.30;80.57;101843.75;5037022;28;19928;-69
2023/01/24 05:51:47;;;;;;;;;;;;;;;-3.30;80.51;101850.94;5031143;28;19997;-69
2023/01/24 05:54:17;;;;;;;;;;;;;;;-3.31;80.70;101843.91;5029393;28;20623;-72
2023/01/24 05:57:04;;;;;;;;;;;;;;;-3.30;80.57;101833.03;5009798;28;19929;-72
2023/01/24 05:59:48;;;;;;;;;;;;;;;-3.25;80.70;101838.00;5022384;28;19928;-72
2023/01/24 06:02:13;;;;;;;;;;;;;;;-3.21;80.47;101828.72;5021599;28;19933;-72
2023/01/24 06:04:39;;;;;;;;;;;;;;;-3.20;80.41;101832.25;5039979;28;19955;-72
2023/01/24 06:07:05;;;;;;;;;;;;;;;-3.18;80.46;101828.47;5033566;28;20481;-73
2023/01/24 06:09:32;;;;;;;;;;;;;;;-3.18;80.29;101824.94;5032777;28;19928;-73
2023/01/24 06:11:58;;;;;;;;;;;;;;;-3.17;80.26;101831.97;5017330;28;20007;-72
2023/01/24 06:14:24;;;;;;;;;;;;;;;-3.13;80.20;101836.06;5030900;28;19971;-72
2023/01/24 06:16:52;;;;;;;;;;;;;;;-3.09;80.14;101825.94;5026840;28;20486;-73
2023/01/24 06:19:19;;;;;;;;;;;;;;;-3.08;80.04;101822.28;5057228;28;19952;-72
2023/01/24 06:21:46;;;;;;;;;;;;;;;-3.05;79.99;101822.00;5055724;28;19932;-72
2023/01/24 06:24:20;;;;;;;;;;;;;;;-2.99;79.80;101830.34;5016680;28;19951;-68
2023/01/24 06:27:18;;;;;;;;;;;;;;;-2.86;79.67;101829.28;5055578;28;19989;-72
2023/01/24 06:29:45;;;;;;;;;;;;;;;-2.76;79.26;101830.16;5007626;28;19935;-72
2023/01/24 06:32:19;;;;;;;;;;;;;;;-2.78;78.83;101824.09;5028916;28;19929;-72
2023/01/24 06:35:00;;;;;;;;;;;;;;;-2.85;78.89;101829.16;5040560;28;19929;-72
2023/01/24 06:37:32;;;;;;;;;;;;;;;-2.85;79.01;101822.94;5060740;28;19935;-72
2023/01/24 06:40:00;;;;;;;;;;;;;;;-2.78;78.79;101817.88;5059102;28;19932;-73
2023/01/24 06:42:26;;;;;;;;;;;;;;;-2.81;78.78;101820.84;5053416;28;19929;-72
2023/01/24 06:44:52;;;;;;;;;;;;;;;-2.85;78.58;101817.56;5060915;28;19952;-72
2023/01/24 06:47:20;;;;;;;;;;;;;;;-2.89;78.83;101811.66;5041885;28;20514;-72
2023/01/24 06:49:45;;;;;;;;;;;;;;;-2.82;78.81;101813.78;5059608;28;19935;-72
2023/01/24 06:52:12;;;;;;;;;;;;;;;-2.80;78.59;101818.03;5055279;28;19929;-72
2023/01/24 06:54:38;;;;;;;;;;;;;;;-2.75;78.47;101810.44;5055494;28;20391;-73
2023/01/24 06:57:04;;;;;;;;;;;;;;;-2.72;78.53;101823.53;5057751;28;19928;-72
2023/01/24 06:59:31;;;;;;;;;;;;;;;-2.71;78.30;101817.19;5049660;28;19943;-72
2023/01/24 07:01:58;;;;;;;;;;;;;;;-2.68;78.33;101823.25;5011322;28;19968;-73
2023/01/24 07:04:26;;;;;;;;;;;;;;;-2.66;77.96;101813.25;5024403;28;20023;-69
2023/01/24 07:06:52;;;;;;;;;;;;;;;-2.63;77.67;101821.84;5059621;28;19928;-69
2023/01/24 07:09:18;;;;;;;;;;;;;;;-2.59;77.73;101817.91;5043448;28;20418;-73
2023/01/24 07:11:49;;;;;;;;;;;;;;;-2.54;77.50;101824.72;5007121;28;19935;-73
2023/01/24 07:14:15;;;;;;;;;;;;;;;-2.49;76.94;101834.03;5003066;28;19929;-73
2023/01/24 07:16:41;;;;;;;;;;;;;;;-2.47;76.96;101829.38;5042584;28;19974;-73
2023/01/24 07:19:08;;;;;;;;;;;;;;;-2.33;76.69;101829.97;5065496;28;20105;-73
2023/01/24 07:21:38;;;;;;;;;;;;;;;-2.21;76.40;101827.97;5029949;28;19961;-73
2023/01/24 07:24:09;;;;;;;;;;;;;;;-2.08;75.65;101825.88;5062279;28;19932;-74
2023/01/24 07:26:35;;;;;;;;;;;;;;;-1.97;75.37;101835.59;5023480;28;20023;-73
2023/01/24 07:29:01;;;;;;;;;;;;;;;-1.92;75.08;101833.34;5023429;28;19951;-73
2023/01/24 07:31:27;;;;;;;;;;;;;;;-1.91;74.86;101834.19;5062558;28;20607;-73
2023/01/24 07:33:54;;;;;;;;;;;;;;;-1.85;74.80;101838.97;5062798;28;19936;-73
2023/01/24 07:36:19;;;;;;;;;;;;;;;-1.86;74.41;101838.16;5030370;28;19944;-72
2023/01/24 07:38:47;;;;;;;;;;;;;;;-1.89;74.60;101830.34;5066196;28;19928;-67
2023/01/24 07:41:13;;;;;;;;;;;;;;;-1.88;74.62;101826.69;5050447;28;20044;-67
2023/01/24 07:43:40;;;;;;;;;;;;;;;-1.90;74.64;101828.66;5065853;28;20031;-66
2023/01/24 07:46:06;;;;;;;;;;;;;;;-1.94;74.76;101829.94;5043634;28;19928;-64
2023/01/24 07:48:32;;;;;;;;;;;;;;;-1.96;74.78;101831.06;5026539;28;20308;-65
2023/01/24 07:50:59;;;;;;;;;;;;;;;-2.00;74.79;101833.22;5044931;28;19952;-65
2023/01/24 07:53:25;;;;;;;;;;;;;;;-2.07;74.68;101829.38;5010411;28;20347;-64
2023/01/24 07:55:52;;;;;;;;;;;;;;;-2.17;75.02;101832.06;5037587;28;19990;-64
2023/01/24 07:58:18;;;;;;;;;;;;;;;-2.16;75.14;101833.75;5045237;28;20296;-66
2023/01/24 08:00:44;;;;;;;;;;;;;;;-2.21;75.19;101831.50;5042541;28;20023;-64
2023/01/24 08:03:10;;;;;;;;;;;;;;;-2.18;75.31;101831.25;5032282;28;19933;-64
2023/01/24 08:05:36;;;;;;;;;;;;;;;-2.15;75.12;101835.44;5031354;28;20509;-64
2023/01/24 08:08:02;;;;;;;;;;;;;;;-2.15;75.24;101830.09;5044865;28;19994;-64
2023/01/24 08:10:29;;;;;;;;;;;;;;;-2.09;75.19;101837.59;5039653;28;19928;-65
2023/01/24 08:12:56;;;;;;;;;;;;;;;-2.08;75.08;101835.75;5031007;28;20031;-65
2023/01/24 08:15:22;;;;;;;;;;;;;;;-2.02;75.01;101825.28;5043269;28;19964;-65
2023/01/24 08:17:48;;;;;;;;;;;;;;;-1.98;75.00;101828.56;5011209;28;20034;-64
2023/01/24 08:20:15;;;;;;;;;;;;;;;-1.88;74.85;101815.13;5010361;28;19932;-65
2023/01/24 08:22:41;;;;;;;;;;;;;;;-1.84;74.27;101819.22;5044376;28;20437;-65
2023/01/24 08:25:07;;;;;;;;;;;;;;;-1.89;74.40;101819.63;5047709;28;19935;-65
2023/01/24 08:27:33;;;;;;;;;;;;;;;-2.01;74.62;101793.97;5026831;28;19929;-65
2023/01/24 08:30:02;;;;;;;;;;;;;;;-1.86;74.43;101824.72;5049258;28;19979;-65
2023/01/24 08:32:29;;;;;;;;;;;;;;;-1.86;74.61;101822.06;5042933;28;19935;-66
2023/01/24 08:34:56;;;;;;;;;;;;;;;-1.85;74.20;101812.16;5045183;28;19929;-67
2023/01/24 08:37:21;;;;;;;;;;;;;;;-1.84;74.34;101808.47;5053010;28;19928;-64
2023/01/24 08:39:47;;;;;;;;;;;;;;;-1.76;74.07;101813.13;5029623;28;20078;-64
2023/01/24 08:42:13;;;;;;;;;;;;;;;-1.71;73.96;101800.97;5039480;28;19937;-64
2023/01/24 08:44:39;;;;;;;;;;;;;;;-1.71;73.53;101814.38;5046285;28;20264;-66
2023/01/24 08:47:06;;;;;;;;;;;;;;;-1.75;73.59;101804.09;5053013;28;20408;-66
2023/01/24 08:49:32;;;;;;;;;;;;;;;-1.71;73.77;101798.28;5046107;28;19971;-64
2023/01/24 08:52:01;;;;;;;;;;;;;;;-1.66;73.53;101795.19;5043519;28;19967;-65
2023/01/24 08:54:27;;;;;;;;;;;;;;;-1.61;73.29;101792.06;5004071;28;19929;-64
2023/01/24 08:56:53;;;;;;;;;;;;;;;-1.63;73.41;101786.00;5036817;28;19955;-64
2023/01/24 08:59:19;;;;;;;;;;;;;;;-1.56;73.30;101789.78;5020906;28;19932;-64
2023/01/24 09:01:45;;;;;;;;;;;;;;;-1.50;73.11;101778.47;5039014;28;20123;-64
2023/01/24 09:04:12;;;;;;;;;;;;;;;-1.42;72.89;101783.09;5048158;28;19929;-64
2023/01/24 09:06:38;;;;;;;;;;;;;;;-1.40;72.52;101770.41;5048659;28;20066;-67
2023/01/24 09:09:05;;;;;;;;;;;;;;;-1.60;72.62;101746.31;5043075;28;19936;-64
2023/01/24 09:11:31;;;;;;;;;;;;;;;-1.46;72.61;101771.84;5044916;28;20049;-64
2023/01/24 09:13:57;;;;;;;;;;;;;;;-1.34;72.42;101763.56;5008737;28;20189;-64
2023/01/24 09:16:23;;;;;;;;;;;;;;;-1.27;72.22;101774.56;5033084;28;20362;-64
2023/01/24 09:18:51;;;;;;;;;;;;;;;-1.31;72.09;101756.06;5041623;28;19932;-66
2023/01/24 09:21:18;;;;;;;;;;;;;;;-1.28;71.89;101760.31;5035597;28;19971;-64
2023/01/24 09:23:44;;;;;;;;;;;;;;;-1.32;71.96;101754.38;5020462;28;19928;-64
2023/01/24 09:26:09;;;;;;;;;;;;;;;-1.38;71.93;101755.00;5046143;28;19939;-65
2023/01/24 09:28:36;;;;;;;;;;;;;;;-1.44;72.34;101772.53;5054152;28;20358;-64
2023/01/24 09:31:02;;;;;;;;;;;;;;;-1.45;72.25;101757.41;5039814;28;19929;-65
2023/01/24 09:33:29;;;;;;;;;;;;;;;-1.47;72.62;101747.81;5041308;28;20467;-64
2023/01/24 09:35:56;;;;;;;;;;;;;;;-1.36;72.36;101769.09;5040738;28;19964;-65
2023/01/24 09:38:24;;;;;;;;;;;;;;;-1.40;72.03;101759.66;5037520;28;19933;-64
2023/01/24 09:40:53;;;;;;;;;;;;;;;-1.43;72.39;101765.31;5045336;28;19935;-65
2023/01/24 09:43:30;;;;;;;;;;;;;;;-1.43;72.86;101766.16;5039503;28;19960;-64
2023/01/24 09:46:02;;;;;;;;;;;;;;;-1.40;72.55;101756.13;5038633;28;19940;-66
2023/01/24 09:48:27;;;;;;;;;;;;;;;-1.42;72.35;101748.22;5023602;28;19929;-66
2023/01/24 09:50:57;;;;;;;;;;;;;;;-1.41;72.46;101752.56;5023952;28;19948;-66
2023/01/24 09:53:26;;;;;;;;;;;;;;;-1.39;72.63;101752.44;5042141;28;19932;-65
2023/01/24 09:55:52;;;;;;;;;;;;;;;-1.41;72.49;101747.22;5026645;28;19929;-66
2023/01/24 09:58:30;;;;;;;;;;;;;;;-1.53;72.63;101756.47;5027733;28;19968;-66
2023/01/24 10:00:58;;;;;;;;;;;;;;;-1.57;72.78;101740.63;5024926;28;20506;-66
2023/01/24 10:03:24;;;;;;;;;;;;;;;-1.57;73.15;101734.44;5026347;28;20099;-66
2023/01/24 10:05:51;;;;;;;;;;;;;;;-1.46;73.05;101744.13;5043516;28;19933;-65
2023/01/24 10:08:25;;;;;;;;;;;;;;;-1.41;72.60;101732.97;5024976;28;19928;-66
2023/01/24 10:10:53;;;;;;;;;;;;;;;-1.32;72.35;101727.53;5024572;28;19928;-66
2023/01/24 10:13:27;;;;;;;;;;;;;;;-1.24;72.21;101725.97;5025803;28;19998;-66
2023/01/24 10:15:57;;;;;;;;;;;;;;;-1.19;71.90;101727.19;5025077;28;19933;-65
2023/01/24 10:18:31;;;;;;;;;;;;;;;-1.17;71.71;101719.84;5044095;28;19936;-65
2023/01/24 10:21:14;;;;;;;;;;;;;;;-1.21;71.94;101714.94;5035154;28;19933;-66
2023/01/24 10:23:43;;;;;;;;;;;;;;;-1.11;71.81;101712.19;5040516;28;19951;-64
2023/01/24 10:26:16;;;;;;;;;;;;;;;-1.11;71.40;101717.56;5023516;28;19933;-65
2023/01/24 10:28:46;;;;;;;;;;;;;;;-1.18;71.50;101712.75;5040797;28;20553;-66
2023/01/24 10:31:14;;;;;;;;;;;;;;;-1.23;72.02;101704.31;5044373;28;19929;-66
2023/01/24 10:33:44;;;;;;;;;;;;;;;-1.25;71.91;101705.47;5043205;28;19964;-66
2023/01/24 10:36:12;;;;;;;;;;;;;;;-1.25;71.75;101694.72;5022648;28;19933;-66
2023/01/24 10:38:38;;;;;;;;;;;;;;;-1.28;71.74;101693.22;5023893;28;19928;-65
2023/01/24 10:41:16;;;;;;;;;;;;;;;-1.22;71.94;101687.22;5041628;28;20297;-65
2023/01/24 10:43:45;;;;;;;;;;;;;;;-1.12;71.69;101686.34;5039945;28;19933;-66
2023/01/24 10:46:22;;;;;;;;;;;;;;;-1.06;71.36;101680.34;5040879;28;19928;-68
2023/01/24 10:48:49;;;;;;;;;;;;;;;-1.08;71.34;101676.97;5041147;28;19936;-66
2023/01/24 10:51:17;;;;;;;;;;;;;;;-1.10;71.17;101678.97;5038530;28;20301;-66
2023/01/24 10:53:43;;;;;;;;;;;;;;;-1.22;71.32;101671.13;5041312;28;20451;-64
2023/01/24 10:56:09;;;;;;;;;;;;;;;-1.19;71.72;101664.63;5027436;28;19929;-65
2023/01/24 10:58:39;;;;;;;;;;;;;;;-1.14;71.77;101667.69;5045455;28;19928;-64
2023/01/24 11:01:06;;;;;;;;;;;;;;;-1.13;71.71;101655.09;5024836;28;20244;-64
2023/01/24 11:03:34;;;;;;;;;;;;;;;-1.08;71.43;101664.41;5042749;28;19933;-64
2023/01/24 11:06:01;;;;;;;;;;;;;;;-1.00;71.21;101652.91;5037112;28;20316;-64
2023/01/24 11:08:32;;;;;;;;;;;;;;;-1.02;70.98;101649.50;5046423;28;19941;-64
2023/01/24 11:10:58;;;;;;;;;;;;;;;-1.07;70.87;101649.97;5025846;28;20023;-64
2023/01/24 11:13:26;;;;;;;;;;;;;;;-1.08;71.04;101647.44;5009126;28;20311;-64
2023/01/24 11:15:55;;;;;;;;;;;;;;;-1.09;71.29;101641.22;5042421;28;20022;-64
2023/01/24 11:18:23;;;;;;;;;;;;;;;-1.06;71.04;101650.81;5035770;28;19932;-64
2023/01/24 11:21:03;;;;;;;;;;;;;;;-1.08;70.98;101642.91;5026527;28;19968;-64
2023/01/24 11:23:29;;;;;;;;;;;;;;;-1.21;71.42;101635.22;5060487;28;19928;-66
2023/01/24 11:25:55;;;;;;;;;;;;;;;-1.28;71.90;101634.16;5048263;28;19935;-66
2023/01/24 11:28:25;;;;;;;;;;;;;;;-1.26;71.81;101618.72;5043410;28;19928;-65
2023/01/24 11:30:51;;;;;;;;;;;;;;;-1.20;71.88;101618.13;5027055;28;20420;-66
2023/01/24 11:33:27;;;;;;;;;;;;;;;-1.09;71.77;101625.13;5024383;28;19933;-66
2023/01/24 11:35:55;;;;;;;;;;;;;;;-1.01;71.65;101619.00;5041577;28;20528;-64
2023/01/24 11:38:26;;;;;;;;;;;;;;;-1.07;71.20;101622.28;5033509;28;19929;-64
2023/01/24 11:41:09;;;;;;;;;;;;;;;-1.07;71.21;101619.59;5041578;28;19935;-65
2023/01/24 11:43:42;;;;;;;;;;;;;;;-1.07;71.09;101614.22;5041502;28;19929;-66
2023/01/24 11:46:32;;;;;;;;;;;;;;;-1.12;71.55;101620.03;5027599;28;19929;-64
2023/01/24 11:49:07;;;;;;;;;;;;;;;-1.07;71.17;101622.28;5023973;28;20039;-66
2023/01/24 11:51:39;;;;;;;;;;;;;;;-1.07;71.27;101611.53;5032550;28;19929;-66
2023/01/24 11:54:15;;;;;;;;;;;;;;;-1.11;71.04;101613.66;5047870;28;19939;-64
2023/01/24 11:56:45;;;;;;;;;;;;;;;-1.19;71.35;101606.38;5048655;28;19934;-64
2023/01/24 11:59:35;;;;;;;;;;;;;;;-1.15;71.49;101610.47;5064015;28;20388;-66
2023/01/24 12:02:09;;;;;;;;;;;;;;;-1.08;71.32;101605.31;5045273;28;19928;-66
2023/01/24 12:04:51;;;;;;;;;;;;;;;-1.06;71.10;101597.09;5059753;28;19935;-64
2023/01/24 12:07:22;;;;;;;;;;;;;;;-0.96;71.34;101595.19;5016447;28;19996;-65
2023/01/24 12:09:52;;;;;;;;;;;;;;;-0.91;70.94;101600.09;5063904;28;19966;-66
2023/01/24 12:12:20;;;;;;;;;;;;;;;-0.92;70.92;101595.72;5066198;28;19935;-67
2023/01/24 12:15:12;;;;;;;;;;;;;;;-0.94;70.95;101587.81;5061415;28;19951;-64
2023/01/24 12:17:45;;;;;;;;;;;;;;;-0.98;71.12;101586.44;5043732;28;20321;-66
2023/01/24 12:20:26;;;;;;;;;;;;;;;-0.98;71.24;101585.59;5061334;28;20019;-65
2023/01/24 12:22:53;;;;;;;;;;;;;;;-0.98;70.94;101581.06;5038200;28;20343;-64
2023/01/24 12:25:28;;;;;;;;;;;;;;;-1.02;70.90;101582.38;5064776;28;19936;-64
2023/01/24 12:27:55;;;;;;;;;;;;;;;-1.07;71.29;101568.56;5048839;28;19943;-65
2023/01/24 12:30:26;;;;;;;;;;;;;;;-1.06;71.41;101591.72;5045752;28;20031;-66
2023/01/24 12:32:57;;;;;;;;;;;;;;;-1.06;71.36;101581.00;5045532;28;19928;-66
2023/01/24 12:35:25;;;;;;;;;;;;;;;-1.01;71.17;101578.72;5047917;28;19933;-65
2023/01/24 12:37:57;;;;;;;;;;;;;;;-0.98;71.04;101567.66;5047841;28;19984;-64
2023/01/24 12:40:28;;;;;;;;;;;;;;;-0.92;71.04;101563.50;5063457;28;20026;-64
2023/01/24 12:42:57;;;;;;;;;;;;;;;-0.89;70.91;101571.25;5030704;28;19935;-64
2023/01/24 12:45:26;;;;;;;;;;;;;;;-0.94;70.76;101558.28;5066619;28;19935;-64
2023/01/24 12:47:56;;;;;;;;;;;;;;;-0.95;71.19;101556.59;5062545;28;20317;-64
2023/01/24 12:50:25;;;;;;;;;;;;;;;-0.96;70.98;101554.03;5062377;28;19928;-65
2023/01/24 12:52:59;;;;;;;;;;;;;;;-1.02;71.20;101560.88;5055778;28;20326;-64
2023/01/24 12:55:27;;;;;;;;;;;;;;;-1.02;71.32;101556.38;5062121;28;19935;-64
2023/01/24 12:57:59;;;;;;;;;;;;;;;-0.98;71.24;101548.00;5035186;28;19928;-64
2023/01/24 13:00:29;;;;;;;;;;;;;;;-0.98;71.33;101548.00;5066508;28;19928;-66
2023/01/24 13:03:17;;;;;;;;;;;;;;;-1.01;71.31;101557.22;5044735;28;20051;-64
2023/01/24 13:05:48;;;;;;;;;;;;;;;-1.04;71.42;101541.41;5053183;28;19932;-66
2023/01/24 13:08:21;;;;;;;;;;;;;;;-1.00;71.64;101558.91;5046961;28;19940;-66
2023/01/24 13:10:53;;;;;;;;;;;;;;;-1.08;71.59;101542.72;5055455;28;20019;-65
2023/01/24 13:13:21;;;;;;;;;;;;;;;-1.15;71.95;101550.53;5057875;28;19932;-64
2023/01/24 13:15:53;;;;;;;;;;;;;;;-1.20;72.21;101545.63;5047177;28;19928;-64
2023/01/24 13:18:36;;;;;;;;;;;;;;;-1.19;72.35;101544.63;5048476;28;19929;-65
2023/01/24 13:21:08;;;;;;;;;;;;;;;-1.17;72.14;101539.97;5059378;28;19935;-64